createdAt,value
2022-10-05T00:01:35.189Z,5.53
2022-10-05T00:04:15.386Z,5.17
2022-10-05T00:06:46.342Z,6.17
2022-10-05T00:09:21.491Z,5.90
2022-10-05T00:11:50.106Z,5.20
2022-10-05T00:14:21.891Z,5.80
2022-10-05T00:16:49.517Z,5.60
2022-10-05T00:19:39.517Z,4.93
2022-10-05T00:22:14.090Z,5.30
2022-10-05T00:24:40.901Z,4.87
2022-10-05T00:27:24.337Z,4.80
2022-10-05T00:29:57.318Z,5.07
2022-10-05T00:32:24.219Z,4.67
2022-10-05T00:34:51.223Z,5.23
2022-10-05T00:37:18.274Z,4.57
2022-10-05T00:39:45.962Z,5.07
2022-10-05T00:42:51.620Z,4.97
2022-10-05T00:45:35.824Z,7.43
2022-10-05T00:48:24.472Z,6.77
2022-10-05T00:51:19.717Z,5.20
2022-10-05T00:53:51.036Z,4.97
2022-10-05T00:56:30.437Z,5.10
2022-10-05T00:59:44.676Z,5.67
2022-10-05T01:02:38.895Z,4.77
2022-10-05T01:05:29.377Z,5.20
2022-10-05T01:08:33.742Z,5.37
2022-10-05T01:11:19.029Z,4.97
2022-10-05T01:14:20.721Z,5.23
2022-10-05T01:17:25.207Z,5.30
2022-10-05T01:20:44.001Z,5.30
2022-10-05T01:23:52.073Z,5.33
2022-10-05T01:26:52.089Z,5.20
2022-10-05T01:29:23.306Z,5.40
2022-10-05T01:32:41.654Z,5.27
2022-10-05T01:35:39.270Z,5.20
2022-10-05T01:38:37.341Z,5.47
2022-10-05T01:41:27.202Z,4.90
2022-10-05T01:44:13.013Z,5.17
2022-10-05T01:47:17.853Z,5.43
2022-10-05T01:50:00.548Z,5.30
2022-10-05T01:52:42.147Z,5.60
2022-10-05T01:55:14.937Z,5.00
2022-10-05T01:58:06.063Z,5.27
2022-10-05T02:00:51.789Z,5.30
2022-10-05T02:03:26.372Z,5.00
2022-10-05T02:06:17.483Z,6.20
2022-10-05T02:08:53.526Z,5.40
2022-10-05T02:11:20.704Z,5.30
2022-10-05T02:13:52.981Z,5.57
2022-10-05T02:16:39.816Z,5.07
2022-10-05T02:19:23.314Z,4.93
2022-10-05T02:22:03.362Z,5.20
2022-10-05T02:24:39.182Z,5.20
2022-10-05T02:27:09.626Z,5.60
2022-10-05T02:29:41.994Z,5.73
2022-10-05T02:32:17.994Z,5.10
2022-10-05T02:34:44.903Z,5.67
2022-10-05T02:37:17.110Z,5.10
2022-10-05T02:40:22.875Z,5.60
2022-10-05T02:43:05.305Z,5.23
2022-10-05T02:46:00.061Z,5.50
2022-10-05T02:48:48.631Z,5.33
2022-10-05T02:51:28.321Z,4.40
2022-10-05T02:54:29.800Z,5.13
2022-10-05T02:57:24.271Z,4.20
2022-10-05T03:00:07.164Z,5.30
2022-10-05T03:02:47.940Z,5.67
2022-10-05T03:05:31.919Z,5.03
2022-10-05T03:08:13.130Z,5.00
2022-10-05T03:11:25.694Z,5.43
2022-10-05T03:14:04.701Z,5.13
2022-10-05T03:16:53.987Z,4.73
2022-10-05T03:20:20.965Z,4.87
2022-10-05T03:23:08.336Z,5.27
2022-10-05T03:26:01.058Z,4.10
2022-10-05T03:28:51.351Z,4.33
2022-10-05T03:31:31.792Z,3.87
2022-10-05T03:34:20.742Z,4.90
2022-10-05T03:37:15.086Z,4.73
2022-10-05T03:40:02.571Z,4.57
2022-10-05T03:42:56.906Z,4.70
2022-10-05T03:45:32.785Z,4.20
2022-10-05T03:48:15.084Z,4.13
2022-10-05T03:51:17.320Z,5.00
2022-10-05T03:53:55.324Z,4.37
2022-10-05T03:56:45.101Z,4.60
2022-10-05T03:59:32.556Z,4.33
2022-10-05T04:02:23.782Z,4.50
2022-10-05T04:05:18.941Z,4.23
2022-10-05T04:08:12.423Z,4.57
2022-10-05T04:10:57.169Z,4.13
2022-10-05T04:13:39.967Z,4.60
2022-10-05T04:16:24.900Z,3.93
2022-10-05T04:19:12.797Z,4.83
2022-10-05T04:21:53.149Z,5.20
2022-10-05T04:24:27.365Z,5.40
2022-10-05T04:27:00.477Z,5.40
2022-10-05T04:29:49.209Z,5.20
2022-10-05T04:32:15.987Z,5.13
2022-10-05T04:35:09.969Z,5.70
2022-10-05T04:38:13.501Z,5.37
2022-10-05T04:41:05.529Z,5.30
2022-10-05T04:43:40.447Z,5.07
2022-10-05T04:46:36.795Z,5.50
2022-10-05T04:50:01.684Z,5.17
2022-10-05T04:53:17.257Z,4.50
2022-10-05T04:55:57.292Z,4.70
2022-10-05T04:58:42.407Z,4.57
2022-10-05T05:01:55.726Z,5.07
2022-10-05T05:04:54.821Z,4.60
2022-10-05T05:07:50.202Z,4.50
2022-10-05T05:11:22.413Z,4.80
2022-10-05T05:14:32.172Z,4.13
2022-10-05T05:17:43.844Z,4.17
2022-10-05T05:20:40.514Z,3.87
2022-10-05T05:23:30.361Z,3.40
2022-10-05T05:25:57.042Z,3.87
2022-10-05T05:28:43.498Z,3.97
2022-10-05T05:31:33.151Z,3.33
2022-10-05T05:34:31.696Z,3.60
2022-10-05T05:37:46.549Z,3.70
2022-10-05T05:40:15.854Z,3.83
2022-10-05T05:42:56.310Z,4.80
2022-10-05T05:45:48.512Z,3.90
2022-10-05T05:48:51.611Z,3.70
2022-10-05T05:51:41.372Z,3.93
2022-10-05T05:54:50.979Z,4.27
2022-10-05T05:57:29.837Z,4.17
2022-10-05T06:00:25.258Z,4.90
2022-10-05T06:03:06.186Z,5.13
2022-10-05T06:05:44.018Z,4.70
2022-10-05T06:08:28.738Z,4.93
2022-10-05T06:11:16.451Z,5.50
2022-10-05T06:13:44.407Z,5.17
2022-10-05T06:16:19.706Z,5.07
2022-10-05T06:19:14.020Z,4.43
2022-10-05T06:22:10.847Z,4.80
2022-10-05T06:25:12.992Z,4.10
2022-10-05T06:28:11.694Z,4.07
2022-10-05T06:31:18.939Z,3.60
2022-10-05T06:34:19.723Z,3.10
2022-10-05T06:36:58.185Z,3.60
2022-10-05T06:39:37.381Z,3.40
2022-10-05T06:42:33.085Z,3.03
2022-10-05T06:45:23.746Z,2.97
2022-10-05T06:48:17.354Z,3.43
2022-10-05T06:50:54.398Z,3.40
2022-10-05T06:53:35.338Z,3.53
2022-10-05T06:56:13.324Z,2.67
2022-10-05T06:59:03.801Z,2.90
2022-10-05T07:02:11.463Z,2.90
2022-10-05T07:04:56.786Z,2.90
2022-10-05T07:07:34.434Z,2.77
2022-10-05T07:10:31.891Z,2.60
2022-10-05T07:13:10.537Z,3.03
2022-10-05T07:15:55.344Z,2.70
2022-10-05T07:19:06.147Z,2.50
2022-10-05T07:25:09.304Z,2.53
2022-10-05T07:27:51.092Z,2.80
2022-10-05T07:30:20.382Z,2.37
2022-10-05T07:33:17.708Z,2.43
2022-10-05T07:36:35.513Z,2.70
2022-10-05T07:39:17.290Z,2.77
2022-10-05T07:41:51.640Z,2.43
2022-10-05T07:44:40.530Z,2.70
2022-10-05T07:47:41.108Z,2.43
2022-10-05T07:50:40.312Z,2.40
2022-10-05T07:53:38.797Z,2.43
2022-10-05T07:56:29.537Z,2.63
2022-10-05T07:59:07.899Z,2.43
2022-10-05T08:01:48.620Z,2.73
2022-10-05T08:04:30.614Z,2.50
2022-10-05T08:07:12.489Z,2.50
2022-10-05T08:10:18.493Z,2.50
2022-10-05T08:13:35.015Z,2.50
2022-10-05T08:16:15.551Z,2.60
2022-10-05T08:19:26.257Z,2.73
2022-10-05T08:22:23.087Z,2.50
2022-10-05T08:25:03.903Z,2.97
2022-10-05T08:27:50.533Z,2.83
2022-10-05T08:30:17.889Z,3.03
2022-10-05T08:33:05.485Z,2.60
2022-10-05T08:35:55.742Z,2.57
2022-10-05T08:38:43.297Z,2.63
2022-10-05T08:41:47.585Z,2.50
2022-10-05T08:44:35.706Z,2.57
2022-10-05T08:47:37.052Z,2.70
2022-10-05T08:50:31.184Z,2.23
2022-10-05T08:53:19.622Z,2.90
2022-10-05T08:56:29.399Z,2.10
2022-10-05T08:59:40.047Z,2.50
2022-10-05T09:03:03.881Z,2.40
2022-10-05T09:06:14.443Z,2.43
2022-10-05T09:09:14.487Z,2.73
2022-10-05T09:12:35.270Z,2.20
2022-10-05T09:15:56.808Z,2.30
2022-10-05T09:19:06.242Z,2.23
2022-10-05T09:21:55.428Z,2.70
2022-10-05T09:24:27.199Z,2.43
2022-10-05T09:27:11.823Z,2.20
2022-10-05T09:30:05.342Z,2.17
2022-10-05T09:33:37.042Z,2.10
2022-10-05T09:36:50.225Z,2.07
2022-10-05T09:39:39.922Z,1.87
2022-10-05T09:42:18.824Z,1.80
2022-10-05T09:45:41.270Z,2.10
2022-10-05T09:48:35.339Z,1.80
2022-10-05T09:51:47.694Z,1.60
2022-10-05T09:54:43.847Z,1.80
2022-10-05T09:57:25.437Z,2.20
2022-10-05T10:00:31.453Z,1.80
2022-10-05T10:03:18.878Z,1.73
2022-10-05T10:06:13.863Z,1.48
2022-10-05T10:08:59.163Z,1.45
2022-10-05T10:11:31.557Z,2.03
2022-10-05T10:14:52.677Z,1.80
2022-10-05T10:17:55.541Z,1.80
2022-10-05T10:21:12.327Z,1.80
2022-10-05T10:24:10.788Z,1.70
2022-10-05T10:27:16.410Z,2.15
2022-10-05T10:29:50.580Z,2.13
2022-10-05T10:32:34.579Z,2.20
2022-10-05T10:35:26.022Z,2.25
2022-10-05T10:37:53.014Z,2.10
2022-10-05T10:40:53.460Z,2.10
2022-10-05T10:43:49.458Z,2.08
2022-10-05T10:46:28.059Z,1.83
2022-10-05T10:49:19.938Z,1.80
2022-10-05T10:52:28.719Z,1.90
2022-10-05T10:55:38.697Z,2.17
2022-10-05T10:58:19.103Z,1.70
2022-10-05T11:01:05.896Z,2.03
2022-10-05T11:03:56.977Z,1.80
2022-10-05T11:06:58.828Z,2.10
2022-10-05T11:10:04.984Z,1.90
2022-10-05T11:13:37.968Z,2.03
2022-10-05T11:16:46.410Z,1.95
2022-10-05T11:20:06.763Z,1.80
2022-10-05T11:22:58.729Z,1.73
2022-10-05T11:26:07.305Z,1.63
2022-10-05T11:29:07.287Z,1.58
2022-10-05T11:31:52.805Z,1.80
2022-10-05T11:35:11.003Z,1.60
2022-10-05T11:38:12.848Z,1.65
2022-10-05T11:41:16.569Z,1.80
2022-10-05T11:44:20.002Z,1.60
2022-10-05T11:47:26.318Z,1.73
2022-10-05T11:50:50.499Z,1.63
2022-10-05T11:53:37.432Z,1.70
2022-10-05T11:59:30.155Z,1.65
2022-10-05T12:02:21.609Z,1.60
2022-10-05T12:05:22.416Z,1.63
2022-10-05T12:08:28.460Z,1.90
2022-10-05T12:11:27.487Z,1.63
2022-10-05T12:14:37.848Z,1.80
2022-10-05T12:18:09.232Z,1.52
2022-10-05T12:20:49.622Z,1.80
2022-10-05T12:23:34.881Z,1.60
2022-10-05T12:26:14.909Z,1.80
2022-10-05T12:28:53.325Z,1.80
2022-10-05T12:31:46.271Z,1.60
2022-10-05T12:34:12.962Z,1.73
2022-10-05T12:37:04.405Z,1.70
2022-10-05T12:40:32.199Z,1.60
2022-10-05T12:43:28.633Z,1.70
2022-10-05T12:46:18.228Z,1.58
2022-10-05T12:49:32.162Z,1.70
2022-10-05T12:52:04.128Z,1.50
2022-10-05T12:55:13.141Z,1.63
2022-10-05T12:58:11.271Z,1.50
2022-10-05T13:00:52.401Z,1.75
2022-10-05T13:03:37.116Z,1.80
2022-10-05T13:06:41.911Z,1.80
2022-10-05T13:09:31.431Z,1.80
2022-10-05T13:12:09.783Z,1.55
2022-10-05T13:15:24.629Z,1.77
2022-10-05T13:18:13.395Z,1.60
2022-10-05T13:20:57.063Z,1.80
2022-10-05T13:23:57.343Z,1.52
2022-10-05T13:26:36.017Z,1.80
2022-10-05T13:29:30.460Z,1.90
2022-10-05T13:32:34.112Z,1.58
2022-10-05T13:35:17.297Z,1.83
2022-10-05T13:38:06.684Z,1.70
2022-10-05T13:41:04.035Z,1.60
2022-10-05T13:43:55.065Z,1.73
2022-10-05T13:46:38.541Z,1.30
2022-10-05T13:52:33.862Z,1.60
2022-10-05T13:55:44.743Z,1.58
2022-10-05T13:58:33.178Z,1.48
2022-10-05T14:01:25.277Z,1.70
2022-10-05T14:04:18.112Z,1.55
2022-10-05T14:06:45.485Z,1.90
2022-10-05T14:09:34.858Z,1.80
2022-10-05T14:12:05.926Z,2.50
2022-10-05T14:14:43.636Z,1.77
2022-10-05T14:17:38.079Z,1.70
2022-10-05T14:20:35.097Z,1.83
2022-10-05T14:23:17.327Z,1.60
2022-10-05T14:25:54.053Z,1.58
2022-10-05T14:28:29.592Z,1.60
2022-10-05T14:31:01.967Z,1.83
2022-10-05T14:33:34.854Z,1.50
2022-10-05T14:36:03.115Z,1.67
2022-10-05T14:38:50.891Z,1.80
2022-10-05T14:41:27.441Z,1.90
2022-10-05T14:44:03.704Z,1.83
2022-10-05T14:46:34.585Z,2.10
2022-10-05T14:49:25.715Z,1.77
2022-10-05T14:51:55.523Z,1.83
2022-10-05T14:54:44.224Z,1.70
2022-10-05T14:57:44.860Z,1.55
2022-10-05T15:00:17.596Z,1.40
2022-10-05T15:03:31.286Z,1.60
2022-10-05T15:06:05.358Z,1.50
2022-10-05T15:08:58.468Z,1.70
2022-10-05T15:11:49.191Z,1.63
2022-10-05T15:14:32.086Z,1.80
2022-10-05T15:17:14.851Z,1.77
2022-10-05T15:20:09.546Z,1.45
2022-10-05T15:23:32.201Z,1.75
2022-10-05T15:26:28.811Z,1.48
2022-10-05T15:29:22.686Z,1.42
2022-10-05T15:32:14.686Z,1.70
2022-10-05T15:35:04.122Z,1.77
2022-10-05T15:37:59.658Z,1.92
2022-10-05T15:40:39.659Z,1.98
2022-10-05T15:43:22.747Z,1.63
2022-10-05T15:46:34.236Z,1.77
2022-10-05T15:49:47.558Z,1.83
2022-10-05T15:52:37.963Z,1.73
2022-10-05T15:55:16.801Z,1.60
2022-10-05T15:58:11.129Z,1.90
2022-10-05T16:01:15.980Z,1.80
2022-10-05T16:04:20.336Z,1.75
2022-10-05T16:07:20.849Z,1.75
2022-10-05T16:10:15.715Z,1.85
2022-10-05T16:13:14.720Z,1.88
2022-10-05T16:16:23.865Z,2.72
2022-10-05T16:19:18.399Z,1.70
2022-10-05T16:22:15.035Z,2.00
2022-10-05T16:25:27.520Z,2.17
2022-10-05T16:28:57.525Z,1.90
2022-10-05T16:31:49.055Z,1.85
2022-10-05T16:34:46.576Z,1.60
2022-10-05T16:37:47.232Z,1.80
2022-10-05T16:40:31.928Z,2.13
2022-10-05T16:43:14.633Z,2.88
2022-10-05T16:46:00.670Z,2.70
2022-10-05T16:49:13.954Z,2.28
2022-10-05T16:51:56.854Z,2.65
2022-10-05T16:54:39.050Z,2.40
2022-10-05T16:57:26.310Z,2.50
2022-10-05T17:00:22.446Z,1.85
2022-10-05T17:03:27.279Z,2.40
2022-10-05T17:06:18.672Z,2.60
2022-10-05T17:09:11.862Z,2.23
2022-10-05T17:11:55.432Z,2.40
2022-10-05T17:15:23.828Z,2.20
2022-10-05T17:18:04.617Z,2.60
2022-10-05T17:20:55.455Z,2.10
2022-10-05T17:24:18.091Z,2.33
2022-10-05T17:27:18.018Z,2.43
2022-10-05T17:29:53.040Z,2.23
2022-10-05T17:32:19.667Z,2.63
2022-10-05T17:35:01.576Z,2.40
2022-10-05T17:37:37.070Z,2.40
2022-10-05T17:41:03.074Z,2.60
2022-10-05T17:43:33.948Z,2.37
2022-10-05T17:46:06.825Z,2.00
2022-10-05T17:48:54.263Z,1.90
2022-10-05T17:51:48.226Z,2.13
2022-10-05T17:54:48.726Z,2.20
2022-10-05T17:57:27.799Z,2.10
2022-10-05T17:59:57.215Z,2.10
2022-10-05T18:02:36.530Z,2.10
2022-10-05T18:05:12.516Z,2.20
2022-10-05T18:07:48.004Z,2.30
2022-10-05T18:10:29.479Z,2.10
2022-10-05T18:12:59.270Z,2.10
2022-10-05T18:15:25.966Z,2.30
2022-10-05T18:17:59.437Z,2.47
2022-10-05T18:20:29.550Z,2.10
2022-10-05T18:23:09.591Z,1.97
2022-10-05T18:26:20.394Z,2.27
2022-10-05T18:29:13.950Z,2.20
2022-10-05T18:31:55.140Z,2.60
2022-10-05T18:34:40.639Z,2.30
2022-10-05T18:37:49.028Z,1.90
2022-10-05T18:40:42.516Z,2.40
2022-10-05T18:43:30.686Z,2.67
2022-10-05T18:46:23.171Z,2.23
2022-10-05T18:49:24.765Z,2.40
2022-10-05T18:52:10.442Z,2.23
2022-10-05T18:54:49.370Z,2.07
2022-10-05T18:58:25.991Z,2.03
2022-10-05T19:01:39.641Z,2.10
2022-10-05T19:04:39.030Z,2.33
2022-10-05T19:07:22.518Z,2.30
2022-10-05T19:10:30.062Z,2.10
2022-10-05T19:13:24.129Z,1.90
2022-10-05T19:16:33.447Z,3.07
2022-10-05T19:19:38.611Z,2.30
2022-10-05T19:23:02.046Z,2.50
2022-10-05T19:25:48.233Z,2.13
2022-10-05T19:28:31.406Z,2.50
2022-10-05T19:31:01.902Z,2.13
2022-10-05T19:33:48.632Z,2.00
2022-10-05T19:36:45.038Z,2.10
2022-10-05T19:39:28.532Z,1.87
2022-10-05T19:42:52.559Z,1.90
2022-10-05T19:45:26.229Z,2.27
2022-10-05T19:48:14.342Z,1.73
2022-10-05T19:50:55.139Z,2.60
2022-10-05T19:53:55.928Z,2.37
2022-10-05T19:56:32.248Z,2.20
2022-10-05T19:59:17.735Z,2.50
2022-10-05T20:01:51.360Z,1.83
2022-10-05T20:04:43.135Z,2.00
2022-10-05T20:07:22.848Z,2.00
2022-10-05T20:09:58.620Z,2.33
2022-10-05T20:12:51.280Z,1.80
2022-10-05T20:15:44.042Z,2.30
2022-10-05T20:18:55.084Z,2.13
2022-10-05T20:21:56.656Z,2.73
2022-10-05T20:24:25.913Z,2.40
2022-10-05T20:27:02.206Z,2.00
2022-10-05T20:29:48.160Z,2.10
2022-10-05T20:32:17.879Z,2.27
2022-10-05T20:34:47.600Z,2.50
2022-10-05T20:37:18.630Z,2.27
2022-10-05T20:39:45.536Z,2.13
2022-10-05T20:42:12.295Z,2.57
2022-10-05T20:44:39.127Z,2.27
2022-10-05T20:47:09.431Z,2.30
2022-10-05T20:49:39.084Z,2.40
2022-10-05T20:52:10.427Z,2.70
2022-10-05T20:54:39.138Z,2.20
2022-10-05T20:57:06.771Z,2.43
2022-10-05T20:59:34.761Z,2.87
2022-10-05T21:02:03.889Z,2.80
2022-10-05T21:04:40.850Z,2.00
2022-10-05T21:07:09.278Z,2.67
2022-10-05T21:09:38.321Z,2.60
2022-10-05T21:12:05.319Z,2.50
2022-10-05T21:14:34.231Z,2.40
2022-10-05T21:17:01.874Z,3.60
2022-10-05T21:19:29.489Z,2.30
2022-10-05T21:22:03.680Z,2.30
2022-10-05T21:24:30.518Z,2.33
2022-10-05T21:26:57.614Z,2.70
2022-10-05T21:29:24.740Z,2.30
2022-10-05T21:31:51.962Z,2.63
2022-10-05T21:34:18.891Z,2.47
2022-10-05T21:36:45.786Z,2.60
2022-10-05T21:39:12.581Z,2.23
2022-10-05T21:41:39.395Z,2.70
2022-10-05T21:44:06.665Z,2.33
2022-10-05T21:46:48.048Z,1.80
2022-10-05T21:49:18.914Z,1.20
2022-10-05T21:51:47.483Z,1.13
2022-10-05T21:54:19.653Z,1.27
2022-10-05T21:56:51.660Z,1.10
2022-10-05T21:59:23.814Z,1.00
2022-10-05T22:01:50.580Z,1.30
2022-10-05T22:04:17.649Z,1.07
2022-10-05T22:06:44.478Z,1.10
2022-10-05T22:09:12.094Z,1.37
2022-10-05T22:11:39.154Z,1.10
2022-10-05T22:14:05.878Z,1.50
2022-10-05T22:16:38.971Z,1.17
2022-10-05T22:19:13.944Z,1.10
2022-10-05T22:21:41.872Z,1.20
2022-10-05T22:24:11.558Z,1.37
2022-10-05T22:26:41.127Z,1.10
2022-10-05T22:29:07.977Z,0.93
2022-10-05T22:31:35.157Z,1.20
2022-10-05T22:34:02.016Z,1.20
2022-10-05T22:36:28.915Z,0.90
2022-10-05T22:38:55.829Z,1.10
2022-10-05T22:41:22.664Z,0.97
2022-10-05T22:43:50.799Z,1.20
2022-10-05T22:46:18.214Z,1.07
2022-10-05T22:48:45.158Z,1.20
2022-10-05T22:51:12.206Z,1.00
2022-10-05T22:53:39.026Z,1.17
2022-10-05T22:56:13.757Z,1.40
2022-10-05T22:58:42.948Z,1.07
2022-10-05T23:01:14.031Z,1.20
2022-10-05T23:03:41.712Z,1.20
2022-10-05T23:06:15.795Z,1.30
2022-10-05T23:08:43.981Z,1.60
2022-10-05T23:11:18.879Z,1.00
2022-10-05T23:13:45.774Z,1.40
2022-10-05T23:16:19.634Z,1.13
2022-10-05T23:18:51.729Z,1.20
2022-10-05T23:21:21.347Z,1.20
2022-10-05T23:23:51.008Z,1.33
2022-10-05T23:26:21.611Z,1.27
2022-10-05T23:28:49.547Z,1.17
2022-10-05T23:31:20.838Z,1.37
2022-10-05T23:33:47.825Z,1.37
2022-10-05T23:36:25.355Z,1.10
2022-10-05T23:38:52.581Z,1.00
2022-10-05T23:41:19.923Z,1.30
2022-10-05T23:43:47.356Z,1.30
2022-10-05T23:46:15.276Z,1.00
2022-10-05T23:48:42.275Z,1.10
2022-10-05T23:51:12.714Z,0.90
2022-10-05T23:53:39.893Z,1.07
2022-10-05T23:56:09.164Z,1.13
2022-10-05T23:58:35.918Z,1.43
